Time;durP1;ratioP1;P1;durP2;ratioP2;P2;SDS_P1;SDS_P2;PMS_P1;PMS_P2;Temp;Humidity;BMP_temperature;BMP_pressure;BME280_temperature;BME280_humidity;BME280_pressure;Samples;Min_cycle;Max_cycle;Signal;HPM_P1;HPM_P2
2022/12/18 00:02:03;;;;;;;27.15;14.77;;;;;;;;;;5093116;28;20279;-69
2022/12/18 00:04:30;;;;;;;28.20;14.57;;;;;;;;;;5093408;28;20656;-69
2022/12/18 00:06:57;;;;;;;31.13;13.77;;;;;;;;;;5093213;28;20594;-70
2022/12/18 00:09:24;;;;;;;33.65;16.13;;;;;;;;;;5093183;28;20192;-69
2022/12/18 00:11:52;;;;;;;35.20;15.18;;;;;;;;;;5093123;28;20211;-69
2022/12/18 00:14:19;;;;;;;30.02;14.20;;;;;;;;;;5093021;28;20213;-69
2022/12/18 00:16:46;;;;;;;29.25;14.88;;;;;;;;;;5092947;28;20276;-69
2022/12/18 00:19:14;;;;;;;35.17;14.05;;;;;;;;;;5093134;28;20185;-69
2022/12/18 00:21:41;;;;;;;33.72;15.40;;;;;;;;;;5093084;28;20280;-69
2022/12/18 00:24:08;;;;;;;27.77;13.25;;;;;;;;;;5092907;28;20201;-69
2022/12/18 00:26:35;;;;;;;23.33;12.95;;;;;;;;;;5093000;28;20192;-69
2022/12/18 00:29:05;;;;;;;30.15;13.85;;;;;;;;;;5092848;28;20196;-69
2022/12/18 00:31:32;;;;;;;28.25;14.60;;;;;;;;;;5093043;28;20191;-69
2022/12/18 00:33:59;;;;;;;26.42;13.35;;;;;;;;;;5092969;28;20213;-69
2022/12/18 00:36:26;;;;;;;27.10;14.13;;;;;;;;;;5092926;28;20191;-69
2022/12/18 00:38:54;;;;;;;27.77;13.18;;;;;;;;;;5092913;28;20242;-69
2022/12/18 00:44:04;;;;;;;25.45;14.30;;;;;;;;;;5091942;28;20185;-69
2022/12/18 00:46:31;;;;;;;26.67;13.50;;;;;;;;;;5092629;28;20231;-69
2022/12/18 00:48:58;;;;;;;32.03;13.70;;;;;;;;;;5092847;28;20189;-69
2022/12/18 00:51:26;;;;;;;32.72;14.00;;;;;;;;;;5092748;28;20185;-69
2022/12/18 00:53:53;;;;;;;28.92;13.98;;;;;;;;;;5092596;28;20549;-69
2022/12/18 00:56:23;;;;;;;26.38;13.23;;;;;;;;;;5092563;28;20189;-69
2022/12/18 00:58:50;;;;;;;28.80;12.38;;;;;;;;;;5092610;28;20703;-69
2022/12/18 01:01:19;;;;;;;32.47;15.77;;;;;;;;;;5095738;28;20193;-69
2022/12/18 01:03:46;;;;;;;25.67;13.10;;;;;;;;;;5096557;28;20255;-69
2022/12/18 01:06:14;;;;;;;23.15;13.57;;;;;;;;;;5096456;28;20559;-69
2022/12/18 01:08:41;;;;;;;29.63;13.50;;;;;;;;;;5096299;28;20277;-69
2022/12/18 01:11:09;;;;;;;32.58;14.40;;;;;;;;;;5096630;28;20205;-69
2022/12/18 01:13:36;;;;;;;29.38;13.85;;;;;;;;;;5096281;28;20224;-69
2022/12/18 01:16:03;;;;;;;26.83;12.65;;;;;;;;;;5096365;28;20194;-69
2022/12/18 01:18:31;;;;;;;26.98;12.85;;;;;;;;;;5096374;28;20195;-69
2022/12/18 01:20:58;;;;;;;26.63;12.27;;;;;;;;;;5096257;28;20275;-69
2022/12/18 01:23:28;;;;;;;27.58;13.05;;;;;;;;;;5096141;28;20334;-69
2022/12/18 01:25:55;;;;;;;29.42;13.95;;;;;;;;;;5096262;28;20288;-69
2022/12/18 01:28:22;;;;;;;21.77;11.45;;;;;;;;;;5096112;28;20211;-69
2022/12/18 01:30:49;;;;;;;23.40;12.38;;;;;;;;;;5095979;28;20189;-69
2022/12/18 01:33:16;;;;;;;24.77;12.98;;;;;;;;;;5095926;28;20196;-69
2022/12/18 01:35:44;;;;;;;23.80;12.10;;;;;;;;;;5095716;28;20231;-69
2022/12/18 01:38:11;;;;;;;24.75;13.10;;;;;;;;;;5096085;28;20252;-69
2022/12/18 01:40:38;;;;;;;26.08;13.40;;;;;;;;;;5095955;28;20195;-69
2022/12/18 01:43:05;;;;;;;27.02;13.07;;;;;;;;;;5095838;28;20274;-69
2022/12/18 01:45:32;;;;;;;25.20;13.82;;;;;;;;;;5095416;28;20192;-69
2022/12/18 01:48:00;;;;;;;27.15;15.00;;;;;;;;;;5095678;28;20195;-69
2022/12/18 01:50:30;;;;;;;24.88;11.98;;;;;;;;;;5095626;28;20185;-69
2022/12/18 01:52:59;;;;;;;23.02;12.82;;;;;;;;;;5095767;28;20193;-69
2022/12/18 01:55:27;;;;;;;23.83;13.55;;;;;;;;;;5095531;28;20217;-69
2022/12/18 01:57:55;;;;;;;26.25;13.50;;;;;;;;;;5095513;28;20195;-69
2022/12/18 02:00:23;;;;;;;30.83;14.60;;;;;;;;;;5095448;28;20189;-69
2022/12/18 02:02:50;;;;;;;28.77;14.20;;;;;;;;;;5095266;28;20551;-70
2022/12/18 02:05:19;;;;;;;23.58;13.00;;;;;;;;;;5095589;28;20193;-69
2022/12/18 02:07:49;;;;;;;25.48;12.82;;;;;;;;;;5095438;28;20189;-69
2022/12/18 02:10:21;;;;;;;22.50;12.10;;;;;;;;;;5095379;28;20189;-69
2022/12/18 02:12:54;;;;;;;30.50;13.80;;;;;;;;;;5094429;28;20185;-69
2022/12/18 02:15:25;;;;;;;31.80;15.05;;;;;;;;;;5095028;28;20520;-69
2022/12/18 02:17:55;;;;;;;23.80;13.27;;;;;;;;;;5095264;28;20190;-69
2022/12/18 02:20:24;;;;;;;25.95;12.98;;;;;;;;;;5095237;28;20195;-69
2022/12/18 02:23:01;;;;;;;32.65;15.10;;;;;;;;;;5095101;28;20277;-69
2022/12/18 02:25:37;;;;;;;27.90;12.93;;;;;;;;;;5095000;28;20197;-69
2022/12/18 02:28:07;;;;;;;23.05;13.00;;;;;;;;;;5095084;28;20272;-69
2022/12/18 02:30:36;;;;;;;25.10;11.95;;;;;;;;;;5095237;28;20658;-69
2022/12/18 02:33:04;;;;;;;28.52;13.88;;;;;;;;;;5094811;28;20196;-69
2022/12/18 02:35:32;;;;;;;23.83;12.93;;;;;;;;;;5094698;28;20225;-69
2022/12/18 02:37:59;;;;;;;22.38;12.77;;;;;;;;;;5094744;28;20280;-69
2022/12/18 02:40:27;;;;;;;23.40;12.38;;;;;;;;;;5094542;28;20587;-69
2022/12/18 02:42:54;;;;;;;24.75;12.48;;;;;;;;;;5094761;28;20557;-69
2022/12/18 02:45:22;;;;;;;24.48;12.48;;;;;;;;;;5094648;28;20188;-69
2022/12/18 02:47:50;;;;;;;28.15;13.00;;;;;;;;;;5094246;28;20301;-69
2022/12/18 02:50:20;;;;;;;25.20;14.18;;;;;;;;;;5094434;28;20193;-69
2022/12/18 02:52:50;;;;;;;25.83;13.50;;;;;;;;;;5094317;28;20188;-69
2022/12/18 02:55:20;;;;;;;26.00;13.77;;;;;;;;;;5094479;28;20224;-69
2022/12/18 02:57:49;;;;;;;28.15;14.82;;;;;;;;;;5094388;28;20195;-69
2022/12/18 03:00:17;;;;;;;25.52;11.60;;;;;;;;;;5094178;28;20659;-69
2022/12/18 03:02:49;;;;;;;24.95;13.77;;;;;;;;;;5094168;28;20189;-69
2022/12/18 03:05:18;;;;;;;29.77;13.95;;;;;;;;;;5094143;28;20207;-69
2022/12/18 03:07:47;;;;;;;28.00;14.10;;;;;;;;;;5094283;28;20568;-69
2022/12/18 03:10:15;;;;;;;29.17;14.15;;;;;;;;;;5094242;28;20666;-69
2022/12/18 03:12:45;;;;;;;33.17;14.95;;;;;;;;;;5094132;28;20185;-69
2022/12/18 03:15:14;;;;;;;30.92;14.32;;;;;;;;;;5093971;28;20213;-69
2022/12/18 03:17:43;;;;;;;37.53;16.30;;;;;;;;;;5093901;28;20217;-69
2022/12/18 03:20:14;;;;;;;31.40;14.40;;;;;;;;;;5094084;28;20185;-69
2022/12/18 03:22:43;;;;;;;32.58;15.38;;;;;;;;;;5093999;28;20200;-69
2022/12/18 03:25:12;;;;;;;27.67;14.70;;;;;;;;;;5093930;28;20359;-69
2022/12/18 03:27:43;;;;;;;28.52;14.27;;;;;;;;;;5093808;28;20192;-69
2022/12/18 03:30:12;;;;;;;31.40;14.10;;;;;;;;;;5093733;28;20254;-69
2022/12/18 03:32:41;;;;;;;32.25;14.52;;;;;;;;;;5093697;28;20639;-69
2022/12/18 03:35:09;;;;;;;29.70;14.27;;;;;;;;;;5093791;28;20583;-69
2022/12/18 03:37:38;;;;;;;26.45;13.88;;;;;;;;;;5093697;28;20552;-69
2022/12/18 03:40:06;;;;;;;32.78;14.02;;;;;;;;;;5093596;28;20197;-69
2022/12/18 03:42:38;;;;;;;30.48;13.43;;;;;;;;;;5093553;28;20197;-69
2022/12/18 03:45:09;;;;;;;24.45;11.50;;;;;;;;;;5093414;28;20242;-69
2022/12/18 03:47:41;;;;;;;28.98;12.82;;;;;;;;;;5093305;28;20647;-69
2022/12/18 03:50:11;;;;;;;25.35;13.35;;;;;;;;;;5093458;28;20719;-69
2022/12/18 03:52:43;;;;;;;22.23;11.68;;;;;;;;;;5093458;28;20626;-69
2022/12/18 03:55:11;;;;;;;22.05;11.90;;;;;;;;;;5093352;28;20217;-69
2022/12/18 03:57:38;;;;;;;25.67;11.85;;;;;;;;;;5093243;28;20188;-69
2022/12/18 04:00:07;;;;;;;24.42;12.82;;;;;;;;;;5093431;28;20189;-69
2022/12/18 04:02:35;;;;;;;26.67;12.07;;;;;;;;;;5093338;28;20276;-69
2022/12/18 04:05:04;;;;;;;21.90;11.32;;;;;;;;;;5093265;28;20189;-69
2022/12/18 04:07:31;;;;;;;19.15;10.13;;;;;;;;;;5093218;28;20279;-69
2022/12/18 04:10:00;;;;;;;24.48;12.82;;;;;;;;;;5093098;28;20185;-69
2022/12/18 04:12:27;;;;;;;24.70;10.75;;;;;;;;;;5093147;28;20678;-69
2022/12/18 04:14:54;;;;;;;28.65;13.85;;;;;;;;;;5093174;28;20195;-69
2022/12/18 04:17:21;;;;;;;26.90;12.70;;;;;;;;;;5093233;28;20697;-69
2022/12/18 04:19:48;;;;;;;20.70;10.77;;;;;;;;;;5093188;28;20188;-69
2022/12/18 04:22:15;;;;;;;23.00;12.60;;;;;;;;;;5092993;28;20189;-69
2022/12/18 04:24:42;;;;;;;23.52;11.13;;;;;;;;;;5092991;28;20558;-69
2022/12/18 04:27:10;;;;;;;21.08;11.20;;;;;;;;;;5093098;28;20275;-69
2022/12/18 04:29:37;;;;;;;22.73;11.48;;;;;;;;;;5093023;28;20276;-69
2022/12/18 04:32:04;;;;;;;26.92;10.98;;;;;;;;;;5093046;28;20192;-69
2022/12/18 04:34:31;;;;;;;27.58;11.90;;;;;;;;;;5093091;28;20185;-69
2022/12/18 04:36:58;;;;;;;27.95;12.20;;;;;;;;;;5096865;28;20221;-69
2022/12/18 04:39:26;;;;;;;32.35;13.32;;;;;;;;;;5096937;28;20185;-69
2022/12/18 04:41:53;;;;;;;24.23;12.27;;;;;;;;;;5097119;28;20727;-69
2022/12/18 04:44:21;;;;;;;26.05;12.85;;;;;;;;;;5097034;28;20276;-69
2022/12/18 04:46:48;;;;;;;29.25;14.18;;;;;;;;;;5096811;28;20216;-69
2022/12/18 04:49:15;;;;;;;23.10;11.60;;;;;;;;;;5096853;28;20193;-69
2022/12/18 04:51:42;;;;;;;22.83;12.05;;;;;;;;;;5096654;28;20560;-69
2022/12/18 04:54:09;;;;;;;25.13;12.40;;;;;;;;;;5096935;28;20195;-69
2022/12/18 04:56:36;;;;;;;24.38;10.80;;;;;;;;;;5096669;28;20315;-69
2022/12/18 04:59:03;;;;;;;28.52;12.88;;;;;;;;;;5096745;28;20272;-69
2022/12/18 05:01:33;;;;;;;25.42;11.85;;;;;;;;;;5096643;28;20592;-69
2022/12/18 05:04:00;;;;;;;24.58;12.05;;;;;;;;;;5096544;28;20193;-69
2022/12/18 05:06:27;;;;;;;23.60;12.60;;;;;;;;;;5096376;28;20594;-69
2022/12/18 05:08:54;;;;;;;26.30;13.20;;;;;;;;;;5096579;28;20284;-69
2022/12/18 05:11:21;;;;;;;28.63;12.98;;;;;;;;;;5096493;28;20189;-69
2022/12/18 05:13:48;;;;;;;25.48;12.65;;;;;;;;;;5096442;28;20185;-69
2022/12/18 05:16:15;;;;;;;28.08;13.25;;;;;;;;;;5096293;28;20221;-69
2022/12/18 05:18:44;;;;;;;26.25;12.43;;;;;;;;;;5096180;28;20217;-69
2022/12/18 05:21:10;;;;;;;30.98;13.15;;;;;;;;;;5096420;28;20184;-69
2022/12/18 05:23:38;;;;;;;21.75;11.05;;;;;;;;;;5096301;28;20191;-69
2022/12/18 05:26:06;;;;;;;24.80;12.75;;;;;;;;;;5096193;28;20549;-69
2022/12/18 05:28:34;;;;;;;25.58;12.23;;;;;;;;;;5096151;28;20220;-69
2022/12/18 05:31:01;;;;;;;24.20;11.52;;;;;;;;;;5096298;28;20533;-69
2022/12/18 05:33:30;;;;;;;28.88;14.40;;;;;;;;;;5095841;28;20560;-69
2022/12/18 05:36:00;;;;;;;27.80;12.95;;;;;;;;;;5096013;28;20233;-69
2022/12/18 05:38:27;;;;;;;23.90;11.68;;;;;;;;;;5096027;28;20292;-69
2022/12/18 05:40:55;;;;;;;27.88;12.70;;;;;;;;;;5095845;28;20199;-69
2022/12/18 05:43:22;;;;;;;32.15;13.95;;;;;;;;;;5095788;28;20275;-69
2022/12/18 05:45:50;;;;;;;34.45;14.55;;;;;;;;;;5095101;28;20225;-69
2022/12/18 05:48:17;;;;;;;27.77;12.98;;;;;;;;;;5094729;28;20649;-69
2022/12/18 05:50:46;;;;;;;28.70;14.23;;;;;;;;;;5095847;28;20196;-69
2022/12/18 05:53:14;;;;;;;30.08;13.77;;;;;;;;;;5095727;28;20200;-69
2022/12/18 05:55:42;;;;;;;27.10;13.05;;;;;;;;;;5095492;28;20579;-69
2022/12/18 05:58:10;;;;;;;26.02;12.75;;;;;;;;;;5095539;28;20280;-69
2022/12/18 06:00:39;;;;;;;23.02;11.80;;;;;;;;;;5095385;28;20644;-69
2022/12/18 06:03:06;;;;;;;29.90;14.07;;;;;;;;;;5095335;28;20232;-68
2022/12/18 06:05:36;;;;;;;27.83;13.52;;;;;;;;;;5095457;28;20192;-68
2022/12/18 06:08:03;;;;;;;31.60;12.68;;;;;;;;;;5095354;28;20228;-69
2022/12/18 06:10:32;;;;;;;26.48;12.25;;;;;;;;;;5095255;28;20186;-68
2022/12/18 06:12:59;;;;;;;30.10;13.00;;;;;;;;;;5095127;28;20641;-69
2022/12/18 06:15:26;;;;;;;29.27;13.43;;;;;;;;;;5095263;28;20195;-69
2022/12/18 06:17:53;;;;;;;29.65;13.20;;;;;;;;;;5095195;28;20280;-68
2022/12/18 06:20:20;;;;;;;26.55;12.80;;;;;;;;;;5095163;28;20189;-68
2022/12/18 06:22:47;;;;;;;29.15;13.55;;;;;;;;;;5094987;28;20191;-69
2022/12/18 06:25:14;;;;;;;28.77;14.70;;;;;;;;;;5094802;28;20197;-68
2022/12/18 06:27:42;;;;;;;25.85;14.23;;;;;;;;;;5094908;28;20623;-69
2022/12/18 06:30:10;;;;;;;24.77;13.05;;;;;;;;;;5095061;28;20193;-68
2022/12/18 06:32:37;;;;;;;28.42;11.82;;;;;;;;;;5094870;28;20185;-69
2022/12/18 06:35:04;;;;;;;38.22;16.13;;;;;;;;;;5094877;28;20327;-69
2022/12/18 06:37:32;;;;;;;26.40;13.63;;;;;;;;;;5094725;28;20221;-68
2022/12/18 06:40:00;;;;;;;23.73;12.75;;;;;;;;;;5094657;28;20189;-69
2022/12/18 06:42:27;;;;;;;31.55;14.35;;;;;;;;;;5094802;28;20193;-69
2022/12/18 06:44:56;;;;;;;28.90;13.00;;;;;;;;;;5094811;28;20288;-69
2022/12/18 06:47:23;;;;;;;26.38;14.02;;;;;;;;;;5094417;28;20313;-68
2022/12/18 06:49:49;;;;;;;31.65;14.15;;;;;;;;;;5094470;28;20662;-69
2022/12/18 06:52:19;;;;;;;28.60;15.70;;;;;;;;;;5094438;28;20280;-69
2022/12/18 06:54:46;;;;;;;32.95;14.85;;;;;;;;;;5094342;28;20283;-69
2022/12/18 06:57:13;;;;;;;29.55;13.98;;;;;;;;;;5094352;28;20311;-69
2022/12/18 06:59:40;;;;;;;30.55;14.95;;;;;;;;;;5094317;28;20220;-69
2022/12/18 07:02:12;;;;;;;31.33;15.40;;;;;;;;;;5094392;28;20192;-69
2022/12/18 07:04:39;;;;;;;31.40;14.15;;;;;;;;;;5094172;28;20192;-69
2022/12/18 07:07:06;;;;;;;28.23;14.20;;;;;;;;;;5094006;28;20279;-69
2022/12/18 07:09:33;;;;;;;28.90;14.23;;;;;;;;;;5094281;28;20227;-69
2022/12/18 07:11:59;;;;;;;27.98;13.27;;;;;;;;;;5094189;28;20284;-69
2022/12/18 07:14:26;;;;;;;26.55;15.82;;;;;;;;;;5094092;28;20195;-69
2022/12/18 07:16:53;;;;;;;30.45;13.85;;;;;;;;;;5093970;28;20217;-69
2022/12/18 07:19:29;;;;;;;29.05;14.27;;;;;;;;;;5094014;28;20202;-68
2022/12/18 07:21:56;;;;;;;29.00;13.65;;;;;;;;;;5094050;28;20195;-68
2022/12/18 07:24:23;;;;;;;34.08;14.10;;;;;;;;;;5093970;28;20272;-69
2022/12/18 07:26:50;;;;;;;31.58;14.98;;;;;;;;;;5093898;28;20283;-69
2022/12/18 07:29:17;;;;;;;32.97;15.00;;;;;;;;;;5093682;28;20731;-69
2022/12/18 07:31:44;;;;;;;32.50;14.77;;;;;;;;;;5093699;28;20728;-69
2022/12/18 07:34:12;;;;;;;35.55;15.05;;;;;;;;;;5093483;28;20724;-69
2022/12/18 07:36:40;;;;;;;32.33;14.95;;;;;;;;;;5093681;28;20307;-69
2022/12/18 07:39:07;;;;;;;30.35;14.82;;;;;;;;;;5093484;28;20196;-68
2022/12/18 07:41:34;;;;;;;33.50;14.93;;;;;;;;;;5093629;28;20228;-68
2022/12/18 07:44:01;;;;;;;32.45;15.32;;;;;;;;;;5093480;28;20666;-69
2022/12/18 07:46:28;;;;;;;33.60;15.85;;;;;;;;;;5093208;28;20263;-68
2022/12/18 07:48:55;;;;;;;31.52;14.93;;;;;;;;;;5093381;28;20189;-68
2022/12/18 07:51:22;;;;;;;33.67;15.23;;;;;;;;;;5093419;28;20199;-68
2022/12/18 07:53:50;;;;;;;29.20;13.90;;;;;;;;;;5093311;28;20189;-68
2022/12/18 07:56:17;;;;;;;33.17;16.35;;;;;;;;;;5093060;28;20671;-68
2022/12/18 07:58:45;;;;;;;34.08;14.85;;;;;;;;;;5093256;28;20189;-68
2022/12/18 08:01:13;;;;;;;28.67;14.50;;;;;;;;;;5093167;28;20188;-69
2022/12/18 08:03:40;;;;;;;32.85;15.27;;;;;;;;;;5093373;28;20242;-69
2022/12/18 08:06:08;;;;;;;34.17;13.63;;;;;;;;;;5093278;28;20533;-68
2022/12/18 08:08:35;;;;;;;28.73;15.25;;;;;;;;;;5092983;28;20671;-69
2022/12/18 08:11:04;;;;;;;38.13;16.98;;;;;;;;;;5092418;28;20284;-68
2022/12/18 08:13:31;;;;;;;42.20;17.05;;;;;;;;;;5093135;28;20279;-69
2022/12/18 08:15:58;;;;;;;35.70;15.75;;;;;;;;;;5092833;28;20224;-69
2022/12/18 08:18:25;;;;;;;38.90;16.90;;;;;;;;;;5093166;28;20215;-68
2022/12/18 08:20:52;;;;;;;34.08;15.20;;;;;;;;;;5093138;28;20197;-69
2022/12/18 08:23:19;;;;;;;36.60;15.50;;;;;;;;;;5093070;28;20553;-68
2022/12/18 08:25:46;;;;;;;42.80;16.23;;;;;;;;;;5092959;28;20715;-69
2022/12/18 08:28:20;;;;;;;34.35;15.05;;;;;;;;;;5092887;28;20200;-68
2022/12/18 08:30:47;;;;;;;40.63;15.43;;;;;;;;;;5093159;28;20224;-68
2022/12/18 08:33:14;;;;;;;44.72;16.75;;;;;;;;;;5092957;28;20281;-68
2022/12/18 08:35:41;;;;;;;37.72;17.23;;;;;;;;;;5092876;28;20275;-69
2022/12/18 08:38:08;;;;;;;35.13;15.88;;;;;;;;;;5092815;28;20311;-69
2022/12/18 08:40:35;;;;;;;35.65;16.95;;;;;;;;;;5092841;28;20624;-69
2022/12/18 08:45:59;;;;;;;33.90;16.20;;;;;;;;;;5050211;28;20226;-68
2022/12/18 08:48:26;;;;;;;44.95;20.70;;;;;;;;;;5082541;28;20279;-69
2022/12/18 08:50:57;;;;;;;48.60;21.13;;;;;;;;;;5092648;28;20636;-69
2022/12/18 08:53:27;;;;;;;41.28;18.00;;;;;;;;;;5092685;28;20713;-68
2022/12/18 08:55:54;;;;;;;42.20;16.70;;;;;;;;;;5092776;28;20729;-69
2022/12/18 08:58:21;;;;;;;37.63;17.00;;;;;;;;;;5092969;28;20224;-69
2022/12/18 09:00:48;;;;;;;44.10;18.50;;;;;;;;;;5092782;28;20272;-69
2022/12/18 09:03:16;;;;;;;50.85;18.45;;;;;;;;;;5092566;28;20751;-68
2022/12/18 09:05:44;;;;;;;37.25;19.50;;;;;;;;;;5092436;28;20185;-69
2022/12/18 09:08:11;;;;;;;45.90;17.17;;;;;;;;;;5092782;28;20553;-69
2022/12/18 09:10:42;;;;;;;38.95;17.88;;;;;;;;;;5092810;28;20192;-68
2022/12/18 09:13:10;;;;;;;39.65;16.92;;;;;;;;;;5092660;28;20280;-69
2022/12/18 09:15:41;;;;;;;39.53;16.50;;;;;;;;;;5092611;28;20229;-68
2022/12/18 09:18:08;;;;;;;40.78;17.90;;;;;;;;;;5092150;28;20270;-69
2022/12/18 09:20:37;;;;;;;36.40;15.52;;;;;;;;;;5092735;28;20250;-68
2022/12/18 09:23:04;;;;;;;34.78;14.85;;;;;;;;;;5096335;28;20283;-69
2022/12/18 09:25:32;;;;;;;44.28;18.45;;;;;;;;;;5096163;28;20193;-68
2022/12/18 09:27:59;;;;;;;30.25;14.63;;;;;;;;;;5096013;28;20192;-68
2022/12/18 09:30:26;;;;;;;36.80;16.00;;;;;;;;;;5095974;28;20220;-68
2022/12/18 09:32:56;;;;;;;29.92;14.68;;;;;;;;;;5095905;28;20276;-68
2022/12/18 09:35:23;;;;;;;38.15;16.65;;;;;;;;;;5096086;28;20238;-69
2022/12/18 09:37:52;;;;;;;34.67;15.27;;;;;;;;;;5095737;28;20219;-68
2022/12/18 09:40:20;;;;;;;36.42;15.65;;;;;;;;;;5095830;28;20279;-69
2022/12/18 09:42:49;;;;;;;35.97;16.30;;;;;;;;;;5095797;28;20279;-69
2022/12/18 09:45:17;;;;;;;31.73;14.32;;;;;;;;;;5095669;28;20668;-69
2022/12/18 09:47:45;;;;;;;33.75;15.65;;;;;;;;;;5095474;28;20235;-69
2022/12/18 09:50:20;;;;;;;29.20;14.05;;;;;;;;;;5095774;28;20271;-68
2022/12/18 09:52:49;;;;;;;35.50;14.93;;;;;;;;;;5095609;28;20282;-68
2022/12/18 09:55:22;;;;;;;30.33;15.20;;;;;;;;;;5095561;28;20610;-69
2022/12/18 09:57:51;;;;;;;33.55;15.07;;;;;;;;;;5095413;28;20307;-69
2022/12/18 10:00:19;;;;;;;28.38;13.85;;;;;;;;;;5095540;28;20232;-68
2022/12/18 10:02:47;;;;;;;29.20;14.75;;;;;;;;;;5095443;28;20204;-69
2022/12/18 10:05:15;;;;;;;32.58;14.40;;;;;;;;;;5095335;28;20191;-69
2022/12/18 10:08:00;;;;;;;32.55;15.93;;;;;;;;;;5095306;28;20204;-69
2022/12/18 10:10:33;;;;;;;36.88;17.08;;;;;;;;;;5095244;28;20276;-68
2022/12/18 10:13:04;;;;;;;35.17;15.30;;;;;;;;;;5095362;28;20275;-69
2022/12/18 10:15:34;;;;;;;34.85;17.30;;;;;;;;;;5095290;28;20200;-68
2022/12/18 10:18:05;;;;;;;31.38;15.38;;;;;;;;;;5095149;28;20221;-68
2022/12/18 10:20:34;;;;;;;37.15;15.77;;;;;;;;;;5095002;28;20185;-69
2022/12/18 10:23:04;;;;;;;26.83;12.82;;;;;;;;;;5094894;28;20189;-69
2022/12/18 10:25:36;;;;;;;29.15;13.23;;;;;;;;;;5095383;28;20212;-69
2022/12/18 10:28:10;;;;;;;28.63;14.00;;;;;;;;;;5094806;28;20707;-68
2022/12/18 10:30:37;;;;;;;28.45;13.88;;;;;;;;;;5094755;28;20282;-68
2022/12/18 10:33:04;;;;;;;34.05;14.10;;;;;;;;;;5094131;28;20272;-69
2022/12/18 10:35:31;;;;;;;29.17;13.32;;;;;;;;;;5094750;28;20185;-69
2022/12/18 10:38:02;;;;;;;27.85;14.10;;;;;;;;;;5094728;28;20307;-68
2022/12/18 10:40:29;;;;;;;30.00;13.32;;;;;;;;;;5094723;28;20189;-69
2022/12/18 10:43:12;;;;;;;21.58;13.05;;;;;;;;;;5094650;28;20185;-68
2022/12/18 10:45:39;;;;;;;23.63;12.23;;;;;;;;;;5094359;28;20195;-68
2022/12/18 10:48:06;;;;;;;30.30;13.30;;;;;;;;;;5094506;28;20299;-68
2022/12/18 10:50:35;;;;;;;29.33;13.05;;;;;;;;;;5094513;28;20231;-69
2022/12/18 10:53:03;;;;;;;27.23;13.13;;;;;;;;;;5094425;28;20283;-69
2022/12/18 10:55:33;;;;;;;30.73;12.60;;;;;;;;;;5094437;28;20284;-69
2022/12/18 10:58:15;;;;;;;31.85;13.18;;;;;;;;;;5094261;28;20819;-69
2022/12/18 11:00:43;;;;;;;24.48;13.95;;;;;;;;;;5094286;28;20280;-68
2022/12/18 11:03:29;;;;;;;26.23;12.43;;;;;;;;;;5094138;28;20732;-68
2022/12/18 11:06:03;;;;;;;27.58;12.18;;;;;;;;;;5094123;28;20195;-68
2022/12/18 11:08:30;;;;;;;26.92;11.82;;;;;;;;;;5094101;28;20279;-69
2022/12/18 11:10:56;;;;;;;23.63;11.30;;;;;;;;;;5093941;28;20617;-69
2022/12/18 11:13:25;;;;;;;23.90;12.00;;;;;;;;;;5093954;28;20279;-68
2022/12/18 11:15:53;;;;;;;23.85;12.20;;;;;;;;;;5093972;28;20208;-68
2022/12/18 11:18:21;;;;;;;21.33;11.18;;;;;;;;;;5093748;28;20768;-68
2022/12/18 11:20:52;;;;;;;27.63;13.32;;;;;;;;;;5093913;28;20284;-69
2022/12/18 11:23:20;;;;;;;19.83;11.80;;;;;;;;;;5093556;28;20215;-68
2022/12/18 11:25:53;;;;;;;24.88;11.35;;;;;;;;;;5094008;28;20278;-69
2022/12/18 11:28:28;;;;;;;20.65;11.30;;;;;;;;;;5093846;28;20279;-69
2022/12/18 11:31:10;;;;;;;22.58;10.38;;;;;;;;;;5093719;28;20291;-68
2022/12/18 11:33:40;;;;;;;24.17;12.27;;;;;;;;;;5093639;28;20228;-68
2022/12/18 11:36:09;;;;;;;24.85;12.70;;;;;;;;;;5093828;28;20193;-69
2022/12/18 11:38:38;;;;;;;17.92;10.63;;;;;;;;;;5093564;28;20220;-69
2022/12/18 11:41:06;;;;;;;24.77;11.55;;;;;;;;;;5093654;28;20271;-68
2022/12/18 11:43:36;;;;;;;30.55;12.55;;;;;;;;;;5093317;28;20193;-68
2022/12/18 11:46:05;;;;;;;23.88;11.55;;;;;;;;;;5092517;28;20312;-68
2022/12/18 11:48:34;;;;;;;25.17;11.05;;;;;;;;;;5093338;28;20285;-69
2022/12/18 11:51:04;;;;;;;27.73;11.43;;;;;;;;;;5093537;28;20279;-69
2022/12/18 11:53:31;;;;;;;24.38;12.15;;;;;;;;;;5093316;28;20534;-68
2022/12/18 11:56:03;;;;;;;31.30;11.75;;;;;;;;;;5093039;28;20737;-68
2022/12/18 11:58:36;;;;;;;28.42;13.35;;;;;;;;;;5093111;28;20355;-69
2022/12/18 12:01:07;;;;;;;22.98;13.90;;;;;;;;;;5093473;28;20193;-68
2022/12/18 12:03:42;;;;;;;22.60;12.90;;;;;;;;;;5093221;28;20276;-68
2022/12/18 12:06:14;;;;;;;23.25;13.00;;;;;;;;;;5093180;28;20275;-69
2022/12/18 12:08:45;;;;;;;19.67;11.30;;;;;;;;;;5093157;28;20275;-68
2022/12/18 12:11:16;;;;;;;21.33;12.48;;;;;;;;;;5092973;28;20199;-69
2022/12/18 12:13:46;;;;;;;28.02;13.10;;;;;;;;;;5093202;28;20191;-69
2022/12/18 12:16:18;;;;;;;23.42;13.25;;;;;;;;;;5093224;28;20630;-69
2022/12/18 12:18:53;;;;;;;20.65;12.32;;;;;;;;;;5092923;28;20706;-68
2022/12/18 12:21:23;;;;;;;23.70;12.77;;;;;;;;;;5093051;28;20275;-69
2022/12/18 12:23:55;;;;;;;24.98;14.80;;;;;;;;;;5092765;28;20296;-69
2022/12/18 12:26:24;;;;;;;29.25;14.40;;;;;;;;;;5093161;28;20300;-69
2022/12/18 12:29:02;;;;;;;22.73;13.68;;;;;;;;;;5092946;28;20201;-68
2022/12/18 12:31:35;;;;;;;19.98;13.23;;;;;;;;;;5092975;28;20276;-69
2022/12/18 12:34:06;;;;;;;27.20;13.82;;;;;;;;;;5092764;28;20189;-68
2022/12/18 12:36:42;;;;;;;22.70;13.00;;;;;;;;;;5093068;28;20188;-68
2022/12/18 12:39:12;;;;;;;24.80;14.60;;;;;;;;;;5092943;28;20238;-68
2022/12/18 12:44:26;;;;;;;23.02;13.02;;;;;;;;;;5092806;28;20196;-68
2022/12/18 12:46:56;;;;;;;27.52;13.57;;;;;;;;;;5092577;28;20307;-69
2022/12/18 12:49:24;;;;;;;20.02;13.38;;;;;;;;;;5092755;28;20276;-69
2022/12/18 12:51:58;;;;;;;20.45;11.35;;;;;;;;;;5092740;28;20548;-69
2022/12/18 12:54:27;;;;;;;22.00;12.75;;;;;;;;;;5092572;28;20279;-69
2022/12/18 12:57:01;;;;;;;23.70;12.07;;;;;;;;;;5095022;28;20189;-68
2022/12/18 12:59:32;;;;;;;22.05;11.63;;;;;;;;;;5096714;28;20314;-69
2022/12/18 13:02:01;;;;;;;26.50;15.05;;;;;;;;;;5096623;28;20193;-69
2022/12/18 13:04:34;;;;;;;22.55;13.52;;;;;;;;;;5096411;28;20280;-69
2022/12/18 13:07:05;;;;;;;29.23;17.60;;;;;;;;;;5096478;28;20231;-68
2022/12/18 13:09:32;;;;;;;22.65;13.23;;;;;;;;;;5096241;28;20616;-69
2022/12/18 13:14:50;;;;;;;26.55;14.70;;;;;;;;;;5096271;28;20196;-68
2022/12/18 13:17:29;;;;;;;28.67;14.43;;;;;;;;;;5096269;28;20231;-68
2022/12/18 13:20:07;;;;;;;21.67;13.45;;;;;;;;;;5096120;28;20200;-69
2022/12/18 13:22:37;;;;;;;22.27;12.00;;;;;;;;;;5096249;28;20189;-69
2022/12/18 13:25:05;;;;;;;23.73;14.00;;;;;;;;;;5095981;28;20239;-69
2022/12/18 13:27:50;;;;;;;20.75;12.50;;;;;;;;;;5096008;28;20280;-69
2022/12/18 13:30:32;;;;;;;27.15;15.85;;;;;;;;;;5095786;28;20283;-68
2022/12/18 13:33:27;;;;;;;21.60;13.10;;;;;;;;;;5095187;28;20224;-69
2022/12/18 13:36:02;;;;;;;23.83;13.48;;;;;;;;;;5095844;28;20189;-69
2022/12/18 13:38:34;;;;;;;29.45;14.27;;;;;;;;;;5095659;28;20213;-68
2022/12/18 13:41:02;;;;;;;24.30;14.35;;;;;;;;;;5095662;28;20192;-69
2022/12/18 13:43:34;;;;;;;29.90;15.43;;;;;;;;;;5095871;28;20224;-68
2022/12/18 13:46:02;;;;;;;25.35;16.40;;;;;;;;;;5095629;28;20304;-68
2022/12/18 13:48:32;;;;;;;23.92;14.32;;;;;;;;;;5095626;28;20193;-69
2022/12/18 13:51:03;;;;;;;24.35;16.10;;;;;;;;;;5095586;28;20208;-68
2022/12/18 13:53:32;;;;;;;23.45;13.75;;;;;;;;;;5095529;28;20640;-69
2022/12/18 13:55:59;;;;;;;25.08;15.13;;;;;;;;;;5095733;28;20221;-69
2022/12/18 13:58:26;;;;;;;22.85;14.90;;;;;;;;;;5095528;28;20643;-68
2022/12/18 14:00:52;;;;;;;28.38;15.88;;;;;;;;;;5095343;28;20277;-69
2022/12/18 14:03:21;;;;;;;29.40;15.93;;;;;;;;;;5095379;28;20192;-68
2022/12/18 14:05:53;;;;;;;26.17;13.77;;;;;;;;;;5095100;28;20622;-68
2022/12/18 14:08:22;;;;;;;25.00;14.90;;;;;;;;;;5094092;28;20192;-68
2022/12/18 14:10:50;;;;;;;24.92;13.98;;;;;;;;;;5095001;28;20703;-68
2022/12/18 14:13:20;;;;;;;24.95;13.88;;;;;;;;;;5095066;28;20220;-68
2022/12/18 14:15:49;;;;;;;26.00;16.27;;;;;;;;;;5095120;28;20193;-69
2022/12/18 14:18:20;;;;;;;26.23;13.55;;;;;;;;;;5094976;28;20658;-68
2022/12/18 14:20:50;;;;;;;22.05;13.48;;;;;;;;;;5095325;28;20200;-69
2022/12/18 14:23:28;;;;;;;21.80;14.88;;;;;;;;;;5095069;28;20280;-69
2022/12/18 14:25:55;;;;;;;21.75;14.40;;;;;;;;;;5094873;28;20716;-69
2022/12/18 14:28:23;;;;;;;28.92;14.20;;;;;;;;;;5094855;28;20217;-69
2022/12/18 14:30:50;;;;;;;21.23;14.38;;;;;;;;;;5094819;28;20217;-69
2022/12/18 14:33:18;;;;;;;23.58;12.43;;;;;;;;;;5094896;28;20276;-68
2022/12/18 14:35:54;;;;;;;20.10;12.27;;;;;;;;;;5094821;28;20193;-68
2022/12/18 14:38:23;;;;;;;22.00;12.48;;;;;;;;;;5094679;28;20292;-69